createdAt,value
2018-04-01T00:01:06.645Z,86.90
2018-04-01T00:03:37.372Z,87.13
2018-04-01T00:06:10.761Z,86.72
2018-04-01T00:08:40.534Z,87.08
2018-04-01T00:11:11.246Z,86.99
2018-04-01T00:13:40.310Z,87.12
2018-04-01T00:16:16.549Z,87.26
2018-04-01T00:18:46.364Z,86.77
2018-04-01T00:21:25.115Z,86.95
2018-04-01T00:23:56.331Z,86.68
2018-04-01T00:26:26.908Z,87.00
2018-04-01T00:28:57.240Z,86.92
2018-04-01T00:31:27.289Z,86.59
2018-04-01T00:33:57.828Z,86.43
2018-04-01T00:36:31.589Z,86.88
2018-04-01T00:39:01.757Z,86.78
2018-04-01T00:41:32.291Z,86.18
2018-04-01T00:44:02.279Z,86.26
2018-04-01T00:46:32.973Z,86.06
2018-04-01T00:49:03.278Z,86.04
2018-04-01T00:51:34.139Z,86.12
2018-04-01T00:54:03.428Z,86.07
2018-04-01T00:56:35.640Z,86.00
2018-04-01T00:59:06.185Z,85.87
2018-04-01T01:01:40.700Z,85.73
2018-04-01T01:04:10.631Z,85.58
2018-04-01T01:06:40.629Z,85.69
2018-04-01T01:09:10.200Z,85.67
2018-04-01T01:11:47.025Z,85.40
2018-04-01T01:14:22.527Z,85.61
2018-04-01T01:16:52.944Z,85.95
2018-04-01T01:19:23.726Z,85.16
2018-04-01T01:21:54.265Z,84.96
2018-04-01T01:24:22.249Z,85.44
2018-04-01T01:26:57.516Z,85.46
2018-04-01T01:29:26.976Z,85.67
2018-04-01T01:31:57.273Z,85.75
2018-04-01T01:34:31.485Z,85.58
2018-04-01T01:37:00.163Z,85.41
2018-04-01T01:39:56.869Z,85.75
2018-04-01T01:42:27.482Z,85.70
2018-04-01T01:44:59.184Z,85.44
2018-04-01T01:47:29.774Z,85.44
2018-04-01T01:50:00.425Z,85.49
2018-04-01T01:52:31.341Z,85.16
2018-04-01T01:55:03.785Z,84.97
2018-04-01T01:57:32.651Z,85.13
2018-04-01T02:00:01.638Z,85.03
2018-04-01T02:02:32.172Z,85.11
2018-04-01T02:05:11.143Z,84.73
2018-04-01T02:07:43.841Z,85.17
2018-04-01T02:10:15.278Z,84.58
2018-04-01T02:12:47.138Z,84.25
2018-04-01T02:15:19.502Z,84.21
2018-04-01T02:17:50.158Z,84.36
2018-04-01T02:20:20.463Z,83.98
2018-04-01T02:22:58.571Z,83.45
2018-04-01T02:25:29.389Z,83.65
2018-04-01T02:27:59.478Z,84.00
2018-04-01T02:30:29.490Z,83.82
2018-04-01T02:33:03.859Z,85.50
2018-04-01T02:35:33.977Z,85.74
2018-04-01T02:38:08.121Z,86.42
2018-04-01T02:40:39.160Z,86.90
2018-04-01T02:43:21.014Z,87.76
2018-04-01T02:45:52.317Z,88.89
2018-04-01T02:48:22.150Z,89.65
2018-04-01T02:50:58.235Z,89.98
2018-04-01T02:53:29.711Z,90.16
2018-04-01T02:56:04.225Z,90.04
2018-04-01T02:58:34.646Z,90.29
2018-04-01T03:01:13.525Z,90.80
2018-04-01T03:03:45.122Z,91.55
2018-04-01T03:06:23.638Z,92.17
2018-04-01T03:08:54.259Z,92.30
2018-04-01T03:11:25.188Z,92.44
2018-04-01T03:13:54.649Z,92.11
2018-04-01T03:16:23.521Z,91.68
2018-04-01T03:18:53.576Z,91.90
2018-04-01T03:21:28.126Z,90.52
2018-04-01T03:23:57.697Z,90.15
2018-04-01T03:26:29.125Z,89.60
2018-04-01T03:28:59.244Z,89.13
2018-04-01T03:31:28.760Z,89.12
2018-04-01T03:33:57.457Z,89.64
2018-04-01T03:36:28.182Z,89.28
2018-04-01T03:38:57.973Z,89.75
2018-04-01T03:41:28.084Z,90.12
2018-04-01T03:43:56.317Z,90.12
2018-04-01T03:46:35.520Z,90.67
2018-04-01T03:49:05.968Z,90.46
2018-04-01T03:51:35.579Z,90.55
2018-04-01T03:54:06.165Z,90.70
2018-04-01T03:56:34.138Z,90.13
2018-04-01T03:59:04.867Z,90.62
2018-04-01T04:01:34.497Z,90.31
2018-04-01T04:04:04.327Z,89.82
2018-04-01T04:06:41.599Z,90.09
2018-04-01T04:09:12.008Z,90.13
2018-04-01T04:11:43.479Z,90.08
2018-04-01T04:14:14.792Z,90.33
2018-04-01T04:16:45.100Z,90.52
2018-04-01T04:19:30.903Z,90.01
2018-04-01T04:22:01.173Z,90.03
2018-04-01T04:24:32.870Z,90.02
2018-04-01T04:27:04.450Z,89.84
2018-04-01T04:29:35.393Z,90.12
2018-04-01T04:32:09.888Z,90.06
2018-04-01T04:34:40.341Z,90.57
2018-04-01T04:37:10.698Z,90.64
2018-04-01T04:39:44.457Z,89.77
2018-04-01T04:42:14.677Z,90.31
2018-04-01T04:44:45.090Z,90.45
2018-04-01T04:47:15.708Z,90.27
2018-04-01T04:50:00.831Z,90.59
2018-04-01T04:52:32.466Z,89.99
2018-04-01T04:55:02.942Z,89.75
2018-04-01T04:57:34.458Z,89.48
2018-04-01T05:00:05.856Z,89.80
2018-04-01T05:02:37.065Z,89.65
2018-04-01T05:05:07.406Z,89.90
2018-04-01T05:07:42.088Z,89.91
2018-04-01T05:10:12.081Z,89.63
2018-04-01T05:12:42.189Z,89.52
2018-04-01T05:15:12.515Z,89.58
2018-04-01T05:17:52.549Z,89.61
2018-04-01T05:20:22.400Z,89.91
2018-04-01T05:22:54.994Z,90.25
2018-04-01T05:25:25.206Z,89.64
2018-04-01T05:27:57.902Z,89.99
2018-04-01T05:30:28.573Z,90.07
2018-04-01T05:33:00.803Z,90.50
2018-04-01T05:35:32.774Z,90.15
2018-04-01T05:38:03.326Z,90.90
2018-04-01T05:40:32.525Z,90.97
2018-04-01T05:43:07.038Z,91.53
2018-04-01T05:45:37.367Z,91.24
2018-04-01T05:48:17.035Z,90.53
2018-04-01T05:50:46.372Z,90.14
2018-04-01T05:53:21.955Z,90.24
2018-04-01T05:55:52.978Z,89.93
2018-04-01T05:58:23.370Z,89.41
2018-04-01T06:00:55.920Z,89.12
2018-04-01T06:03:30.061Z,88.59
2018-04-01T06:06:02.228Z,88.39
2018-04-01T06:08:32.586Z,88.05
2018-04-01T06:11:03.329Z,88.24
2018-04-01T06:13:33.354Z,88.46
2018-04-01T06:16:05.134Z,88.63
2018-04-01T06:18:35.522Z,88.20
2018-04-01T06:21:06.881Z,88.21
2018-04-01T06:23:37.796Z,88.04
2018-04-01T06:26:07.117Z,88.66
2018-04-01T06:28:37.275Z,88.92
2018-04-01T06:31:07.620Z,89.08
2018-04-01T06:33:37.883Z,89.78
2018-04-01T06:36:10.776Z,89.56
2018-04-01T06:38:41.883Z,89.57
2018-04-01T06:41:12.164Z,90.82
2018-04-01T06:43:42.362Z,90.53
2018-04-01T06:46:14.685Z,91.44
2018-04-01T06:48:45.486Z,91.28
2018-04-01T06:51:22.451Z,91.74
2018-04-01T06:53:54.424Z,92.24
2018-04-01T06:56:28.578Z,92.47
2018-04-01T06:58:56.629Z,92.56
2018-04-01T07:01:24.573Z,92.12
2018-04-01T07:03:52.734Z,92.38
2018-04-01T07:06:20.745Z,92.53
2018-04-01T07:08:53.126Z,92.38
2018-04-01T07:11:21.109Z,91.33
2018-04-01T07:13:49.550Z,90.37
2018-04-01T07:16:19.991Z,90.32
2018-04-01T07:18:48.937Z,89.66
2018-04-01T07:21:17.068Z,89.37
2018-04-01T07:23:46.187Z,89.65
2018-04-01T07:26:21.744Z,89.53
2018-04-01T07:28:51.846Z,87.73
2018-04-01T07:31:22.951Z,88.66
2018-04-01T07:33:53.417Z,87.80
2018-04-01T07:36:26.967Z,86.98
2018-04-01T07:39:00.289Z,88.05
2018-04-01T07:41:34.899Z,86.00
2018-04-01T07:44:17.987Z,85.54
2018-04-01T07:46:54.653Z,86.28
2018-04-01T07:49:30.865Z,85.64
2018-04-01T07:52:07.865Z,84.85
2018-04-01T07:54:45.127Z,85.34
2018-04-01T07:57:24.465Z,84.05
2018-04-01T07:59:55.201Z,84.13
2018-04-01T08:02:30.340Z,83.93
2018-04-01T08:05:08.549Z,84.49
2018-04-01T08:07:39.436Z,84.49
2018-04-01T08:10:09.590Z,84.83
2018-04-01T08:12:40.937Z,86.54
2018-04-01T08:15:10.955Z,87.51
2018-04-01T08:17:53.035Z,89.15
2018-04-01T08:20:23.325Z,90.02
2018-04-01T08:22:54.378Z,90.62
2018-04-01T08:25:24.139Z,90.42
2018-04-01T08:28:05.328Z,90.85
2018-04-01T08:30:43.053Z,89.81
2018-04-01T08:33:14.265Z,90.83
2018-04-01T08:35:51.410Z,91.59
2018-04-01T08:38:23.794Z,90.32
2018-04-01T08:40:55.530Z,90.41
2018-04-01T08:43:26.035Z,90.10
2018-04-01T08:46:05.836Z,89.46
2018-04-01T08:48:51.699Z,90.46
2018-04-01T08:51:21.376Z,89.90
2018-04-01T08:53:53.166Z,89.36
2018-04-01T08:56:22.250Z,89.10
2018-04-01T08:58:58.681Z,88.23
2018-04-01T09:01:29.048Z,88.61
2018-04-01T09:04:07.454Z,85.24
2018-04-01T09:06:36.170Z,84.76
2018-04-01T09:09:07.507Z,84.88
2018-04-01T09:11:37.893Z,83.98
2018-04-01T09:14:10.898Z,82.03
2018-04-01T09:16:42.588Z,79.65
2018-04-01T09:19:12.095Z,78.11
2018-04-01T09:21:43.812Z,76.22
2018-04-01T09:24:13.973Z,77.87
2018-04-01T09:26:57.147Z,76.80
2018-04-01T09:29:27.911Z,78.88
2018-04-01T09:31:58.899Z,79.12
2018-04-01T09:34:29.476Z,78.95
2018-04-01T09:37:00.611Z,78.08
2018-04-01T09:39:32.502Z,78.23
2018-04-01T09:42:08.203Z,76.79
2018-04-01T09:44:42.215Z,77.98
2018-04-01T09:47:13.222Z,76.11
2018-04-01T09:49:42.905Z,76.54
2018-04-01T09:52:13.100Z,75.62
2018-04-01T09:54:45.817Z,74.44
2018-04-01T09:57:18.414Z,74.05
2018-04-01T09:59:50.697Z,73.48
2018-04-01T10:02:21.588Z,73.68
2018-04-01T10:05:00.755Z,72.85
2018-04-01T10:07:36.136Z,71.70
2018-04-01T10:10:11.186Z,70.94
2018-04-01T10:12:43.156Z,69.82
2018-04-01T10:15:13.159Z,67.87
2018-04-01T10:17:53.657Z,72.21
2018-04-01T10:20:24.566Z,69.64
2018-04-01T10:22:57.220Z,69.98
2018-04-01T10:25:28.004Z,66.44
2018-04-01T10:27:58.618Z,69.70
2018-04-01T10:30:30.411Z,71.40
2018-04-01T10:33:02.553Z,68.38
2018-04-01T10:35:34.829Z,69.93
2018-04-01T10:38:08.059Z,69.45
2018-04-01T10:40:40.493Z,68.76
2018-04-01T10:43:10.545Z,68.37
2018-04-01T10:45:53.999Z,66.00
2018-04-01T10:48:27.512Z,65.49
2018-04-01T10:50:56.013Z,65.60
2018-04-01T10:53:25.956Z,62.87
2018-04-01T10:55:53.885Z,64.87
2018-04-01T10:58:25.481Z,61.74
2018-04-01T11:00:56.163Z,63.14
2018-04-01T11:03:26.176Z,60.97
2018-04-01T11:05:56.642Z,62.45
2018-04-01T11:08:39.217Z,61.75
2018-04-01T11:11:09.111Z,60.06
2018-04-01T11:13:39.253Z,59.41
2018-04-01T11:16:08.818Z,60.97
2018-04-01T11:18:40.543Z,60.10
2018-04-01T11:21:11.074Z,61.66
2018-04-01T11:23:50.071Z,59.61
2018-04-01T11:26:19.874Z,59.58
2018-04-01T11:28:51.116Z,61.37
2018-04-01T11:31:21.290Z,61.89
2018-04-01T11:33:52.040Z,63.96
2018-04-01T11:36:20.614Z,65.30
2018-04-01T11:38:51.585Z,62.86
2018-04-01T11:41:21.736Z,62.24
2018-04-01T11:43:53.523Z,60.98
2018-04-01T11:46:23.078Z,62.19
2018-04-01T11:48:53.361Z,61.26
2018-04-01T11:51:31.384Z,61.58
2018-04-01T11:54:01.230Z,61.00
2018-04-01T11:56:46.946Z,62.46
2018-04-01T11:59:18.232Z,61.23
2018-04-01T12:01:52.333Z,62.33
2018-04-01T12:04:21.949Z,60.67
2018-04-01T12:06:52.245Z,60.16
2018-04-01T12:09:22.522Z,59.39
2018-04-01T12:11:52.269Z,62.41
2018-04-01T12:14:22.120Z,60.41
2018-04-01T12:16:52.160Z,56.79
2018-04-01T12:19:22.036Z,57.85
2018-04-01T12:21:51.530Z,57.30
2018-04-01T12:24:23.637Z,54.04
2018-04-01T12:26:53.120Z,56.27
2018-04-01T12:29:24.240Z,53.26
2018-04-01T12:31:54.458Z,51.40
2018-04-01T12:34:24.624Z,55.74
2018-04-01T12:36:54.386Z,56.61
2018-04-01T12:39:25.998Z,57.16
2018-04-01T12:41:55.630Z,57.87
2018-04-01T12:44:24.217Z,57.26
2018-04-01T12:46:53.841Z,57.66
2018-04-01T12:49:24.328Z,59.03
2018-04-01T12:51:54.794Z,57.38
2018-04-01T12:54:25.565Z,56.05
2018-04-01T12:56:55.020Z,51.19
2018-04-01T12:59:22.972Z,49.31
2018-04-01T13:01:53.560Z,52.67
2018-04-01T13:04:23.848Z,57.50
2018-04-01T13:06:54.231Z,64.13
2018-04-01T13:09:23.816Z,76.54
2018-04-01T13:11:53.802Z,83.74
2018-04-01T13:14:22.369Z,87.50
2018-04-01T13:16:52.754Z,89.01
2018-04-01T13:19:25.621Z,90.55
2018-04-01T13:21:55.835Z,91.54
2018-04-01T13:24:26.201Z,88.13
2018-04-01T13:26:55.406Z,80.89
2018-04-01T13:29:25.111Z,82.10
2018-04-01T13:31:54.980Z,76.37
2018-04-01T13:34:27.099Z,73.28
2018-04-01T13:36:55.701Z,72.44
2018-04-01T13:39:25.721Z,71.72
2018-04-01T13:41:55.078Z,70.21
2018-04-01T13:44:25.258Z,67.21
2018-04-01T13:46:54.799Z,73.60
2018-04-01T13:49:27.602Z,79.78
2018-04-01T13:51:56.924Z,83.13
2018-04-01T13:54:26.222Z,70.68
2018-04-01T13:56:54.525Z,64.20
2018-04-01T13:59:25.056Z,59.69
2018-04-01T14:01:54.077Z,54.47
2018-04-01T14:04:27.325Z,56.58
2018-04-01T14:06:56.007Z,56.91
2018-04-01T14:09:27.969Z,62.41
2018-04-01T14:11:57.649Z,65.49
2018-04-01T14:14:35.099Z,65.76
2018-04-01T14:17:04.926Z,64.88
2018-04-01T14:19:34.793Z,69.84
2018-04-01T14:22:06.627Z,73.36
2018-04-01T14:24:36.806Z,76.39
2018-04-01T14:27:06.744Z,78.83
2018-04-01T14:29:37.163Z,79.80
2018-04-01T14:32:06.098Z,81.85
2018-04-01T14:34:37.508Z,81.58
2018-04-01T14:37:06.883Z,81.92
2018-04-01T14:39:37.600Z,81.58
2018-04-01T14:42:07.997Z,82.72
2018-04-01T14:44:35.991Z,83.02
2018-04-01T14:47:06.127Z,81.97
2018-04-01T14:49:35.074Z,81.97
2018-04-01T14:52:06.071Z,79.21
2018-04-01T14:54:37.966Z,78.10
2018-04-01T14:57:06.465Z,75.23
2018-04-01T14:59:35.851Z,72.76
2018-04-01T15:02:07.698Z,68.38
2018-04-01T15:04:39.937Z,59.92
2018-04-01T15:07:10.497Z,58.31
2018-04-01T15:09:49.662Z,56.83
2018-04-01T15:12:21.021Z,60.71
2018-04-01T15:14:52.253Z,59.73
2018-04-01T15:17:25.223Z,61.46
2018-04-01T15:19:56.965Z,59.38
2018-04-01T15:22:31.029Z,62.84
2018-04-01T15:25:00.543Z,58.36
2018-04-01T15:27:35.516Z,60.78
2018-04-01T15:30:06.048Z,63.15
2018-04-01T15:32:37.462Z,64.83
2018-04-01T15:35:13.894Z,64.28
2018-04-01T15:37:45.096Z,65.08
2018-04-01T15:40:15.422Z,65.72
2018-04-01T15:42:50.709Z,66.44
2018-04-01T15:45:24.927Z,67.44
2018-04-01T15:47:58.286Z,69.51
2018-04-01T15:50:29.479Z,68.58
2018-04-01T15:53:00.999Z,68.07
2018-04-01T15:55:38.690Z,67.85
2018-04-01T15:58:11.898Z,68.99
2018-04-01T16:00:41.549Z,70.21
2018-04-01T16:03:18.327Z,68.96
2018-04-01T16:05:54.270Z,65.84
2018-04-01T16:08:31.336Z,68.86
2018-04-01T16:11:06.027Z,69.46
2018-04-01T16:13:37.334Z,69.57
2018-04-01T16:16:14.477Z,69.54
2018-04-01T16:18:48.593Z,69.56
2018-04-01T16:21:25.714Z,70.36
2018-04-01T16:23:57.645Z,70.50
2018-04-01T16:26:43.499Z,72.84
2018-04-01T16:29:16.658Z,73.20
2018-04-01T16:31:54.959Z,72.14
2018-04-01T16:34:36.043Z,73.78
2018-04-01T16:37:06.731Z,74.69
2018-04-01T16:39:36.752Z,73.83
2018-04-01T16:42:11.289Z,74.92
2018-04-01T16:44:46.487Z,74.48
2018-04-01T16:47:17.183Z,75.79
2018-04-01T16:49:47.312Z,76.43
2018-04-01T16:52:17.935Z,76.40
2018-04-01T16:54:51.702Z,77.28
2018-04-01T16:57:22.952Z,77.47
2018-04-01T16:59:53.945Z,77.87
2018-04-01T17:02:25.648Z,78.05
2018-04-01T17:04:59.722Z,78.29
2018-04-01T17:07:32.178Z,78.17
2018-04-01T17:10:04.997Z,78.06
2018-04-01T17:12:37.294Z,78.70
2018-04-01T17:15:12.217Z,79.51
2018-04-01T17:17:42.924Z,79.47
2018-04-01T17:20:12.476Z,79.30
2018-04-01T17:22:44.697Z,79.59
2018-04-01T17:25:17.096Z,79.75
2018-04-01T17:27:52.110Z,80.61
2018-04-01T17:33:03.154Z,80.22
2018-04-01T17:35:34.830Z,80.24
2018-04-01T17:38:02.781Z,80.81
2018-04-01T17:40:33.525Z,80.52
2018-04-01T17:43:03.005Z,80.88
2018-04-01T17:45:33.720Z,81.55
2018-04-01T17:48:01.734Z,81.73
2018-04-01T17:50:29.675Z,82.03
2018-04-01T17:53:00.198Z,82.16
2018-04-01T17:55:30.192Z,82.60
2018-04-01T17:58:05.380Z,82.13
2018-04-01T18:00:40.930Z,82.70
2018-04-01T18:03:16.629Z,83.22
2018-04-01T18:05:50.112Z,82.56
2018-04-01T18:08:19.715Z,82.11
2018-04-01T18:10:51.802Z,81.92
2018-04-01T18:13:26.446Z,81.74
2018-04-01T18:15:58.622Z,81.38
2018-04-01T18:18:34.262Z,81.33
2018-04-01T18:21:08.142Z,81.85
2018-04-01T18:23:41.029Z,81.99
2018-04-01T18:26:12.339Z,82.30
2018-04-01T18:28:42.430Z,81.84
2018-04-01T18:31:15.603Z,81.68
2018-04-01T18:33:50.339Z,81.70
2018-04-01T18:36:27.286Z,82.11
2018-04-01T18:38:58.284Z,82.00
2018-04-01T18:41:32.854Z,81.50
2018-04-01T18:44:10.501Z,81.86
2018-04-01T18:46:47.206Z,82.52
2018-04-01T18:49:22.114Z,82.06
2018-04-01T18:51:55.643Z,82.29
2018-04-01T18:54:26.310Z,83.02
2018-04-01T18:56:58.774Z,82.79
2018-04-01T18:59:30.002Z,83.03
2018-04-01T19:02:01.823Z,83.72
2018-04-01T19:04:32.516Z,83.68
2018-04-01T19:07:06.587Z,84.25
2018-04-01T19:09:37.229Z,84.63
2018-04-01T19:12:07.030Z,84.56
2018-04-01T19:14:35.033Z,84.61
2018-04-01T19:17:04.510Z,84.65
2018-04-01T19:19:33.927Z,84.49
2018-04-01T19:22:02.437Z,84.68
2018-04-01T19:24:32.657Z,84.55
2018-04-01T19:27:07.652Z,83.95
2018-04-01T19:29:38.748Z,83.51
2018-04-01T19:32:10.630Z,83.58
2018-04-01T19:34:46.384Z,84.32
2018-04-01T19:37:21.111Z,84.81
2018-04-01T19:40:02.514Z,84.50
2018-04-01T19:42:35.565Z,84.17
2018-04-01T19:45:08.567Z,84.65
2018-04-01T19:47:42.984Z,84.75
2018-04-01T19:50:15.267Z,84.76
2018-04-01T19:52:48.723Z,84.57
2018-04-01T19:55:21.020Z,84.28
2018-04-01T19:57:54.101Z,84.02
2018-04-01T20:00:25.702Z,83.65
2018-04-01T20:02:58.409Z,83.99
2018-04-01T20:05:29.747Z,83.95
2018-04-01T20:08:10.293Z,82.98
2018-04-01T20:10:42.534Z,82.46
2018-04-01T20:13:19.028Z,82.06
2018-04-01T20:16:09.197Z,82.34
2018-04-01T20:18:41.329Z,82.37
2018-04-01T20:21:13.822Z,82.05
2018-04-01T20:23:48.584Z,81.87
2018-04-01T20:26:21.203Z,81.14
2018-04-01T20:28:53.609Z,81.41
2018-04-01T20:31:32.053Z,80.71
2018-04-01T20:34:04.601Z,80.94
2018-04-01T20:36:38.502Z,81.07
2018-04-01T20:39:12.691Z,80.73
2018-04-01T20:41:44.165Z,80.88
2018-04-01T20:44:18.257Z,80.70
2018-04-01T20:46:51.632Z,81.10
2018-04-01T20:49:22.948Z,81.53
2018-04-01T20:51:55.248Z,82.15
2018-04-01T20:54:30.466Z,81.49
2018-04-01T20:57:01.288Z,81.01
2018-04-01T20:59:32.443Z,81.33
2018-04-01T21:02:05.246Z,81.71
2018-04-01T21:04:47.758Z,81.75
2018-04-01T21:07:21.439Z,82.51
2018-04-01T21:09:53.345Z,82.57
2018-04-01T21:12:25.563Z,82.93
2018-04-01T21:14:58.179Z,83.64
2018-04-01T21:17:41.573Z,83.79
2018-04-01T21:20:16.920Z,84.13
2018-04-01T21:22:48.257Z,84.21
2018-04-01T21:25:22.117Z,84.81
2018-04-01T21:27:53.443Z,84.37
2018-04-01T21:30:26.073Z,84.61
2018-04-01T21:33:01.182Z,84.13
2018-04-01T21:35:36.695Z,83.60
2018-04-01T21:38:09.954Z,83.51
2018-04-01T21:40:42.201Z,84.46
2018-04-01T21:43:14.160Z,84.00
2018-04-01T21:45:48.123Z,83.46
2018-04-01T21:48:18.919Z,83.16
2018-04-01T21:50:48.292Z,82.26
2018-04-01T21:53:20.073Z,81.65
2018-04-01T21:56:00.516Z,81.89
2018-04-01T21:58:39.477Z,81.05
2018-04-01T22:01:10.039Z,80.98
2018-04-01T22:03:41.270Z,80.71
2018-04-01T22:06:11.916Z,80.96
2018-04-01T22:08:43.338Z,81.46
2018-04-01T22:11:14.650Z,81.40
2018-04-01T22:14:04.848Z,82.23
2018-04-01T22:16:39.095Z,82.50
2018-04-01T22:19:10.870Z,82.68
2018-04-01T22:21:42.404Z,82.34
2018-04-01T22:24:12.940Z,82.28
2018-04-01T22:26:57.331Z,82.12
2018-04-01T22:29:28.757Z,82.05
2018-04-01T22:31:58.403Z,81.58
2018-04-01T22:34:29.034Z,81.21
2018-04-01T22:37:00.331Z,80.99
2018-04-01T22:39:31.602Z,81.33
2018-04-01T22:42:04.931Z,81.85
2018-04-01T22:44:35.735Z,81.94
2018-04-01T22:47:06.916Z,82.32
2018-04-01T22:49:37.991Z,81.84
2018-04-01T22:52:14.547Z,82.60
2018-04-01T22:54:46.434Z,83.06
2018-04-01T22:57:18.121Z,82.88
2018-04-01T22:59:50.700Z,82.18
2018-04-01T23:02:24.046Z,83.26
2018-04-01T23:04:56.961Z,83.05
2018-04-01T23:07:27.374Z,83.36
2018-04-01T23:10:01.600Z,84.20
2018-04-01T23:12:32.936Z,84.28
2018-04-01T23:15:05.223Z,84.64
2018-04-01T23:17:36.480Z,85.35
2018-04-01T23:20:15.972Z,85.40
2018-04-01T23:22:46.658Z,85.76
2018-04-01T23:25:30.797Z,86.35
2018-04-01T23:28:02.491Z,86.42
2018-04-01T23:30:34.425Z,86.71
2018-04-01T23:33:07.061Z,86.76
2018-04-01T23:35:39.041Z,86.41
2018-04-01T23:38:14.153Z,86.58
2018-04-01T23:40:45.662Z,86.28
2018-04-01T23:43:16.869Z,86.42
2018-04-01T23:45:52.014Z,86.94
2018-04-01T23:48:22.480Z,87.27
2018-04-01T23:50:55.410Z,87.30
2018-04-01T23:53:26.594Z,87.67
2018-04-01T23:55:58.485Z,87.89
2018-04-01T23:58:30.348Z,87.69
